createdAt,value
2023-02-02T00:01:38.509Z,6.71
2023-02-02T00:04:05.324Z,6.71
2023-02-02T00:06:32.296Z,6.71
2023-02-02T00:09:00.886Z,6.73
2023-02-02T00:11:28.417Z,6.73
2023-02-02T00:13:54.984Z,6.74
2023-02-02T00:16:35.811Z,6.76
2023-02-02T00:19:12.616Z,6.75
2023-02-02T00:21:39.691Z,6.75
2023-02-02T00:24:08.399Z,6.75
2023-02-02T00:26:35.259Z,6.75
2023-02-02T00:29:02.214Z,6.76
2023-02-02T00:31:28.669Z,6.75
2023-02-02T00:33:55.235Z,6.74
2023-02-02T00:36:22.040Z,6.75
2023-02-02T00:38:49.776Z,6.74
2023-02-02T00:41:16.782Z,6.73
2023-02-02T00:43:43.426Z,6.73
2023-02-02T00:46:14.563Z,6.72
2023-02-02T00:48:40.983Z,6.70
2023-02-02T00:51:07.505Z,6.70
2023-02-02T00:53:33.939Z,6.67
2023-02-02T00:56:00.382Z,6.67
2023-02-02T00:58:27.032Z,6.67
2023-02-02T01:00:53.539Z,6.65
2023-02-02T01:03:20.032Z,6.64
2023-02-02T01:05:46.589Z,6.63
2023-02-02T01:08:13.039Z,6.62
2023-02-02T01:10:39.490Z,6.63
2023-02-02T01:13:06.358Z,6.64
2023-02-02T01:15:32.848Z,6.64
2023-02-02T01:17:59.340Z,6.64
2023-02-02T01:20:25.964Z,6.64
2023-02-02T01:22:52.709Z,6.65
2023-02-02T01:25:19.396Z,6.66
2023-02-02T01:27:45.949Z,6.68
2023-02-02T01:30:13.025Z,6.66
2023-02-02T01:32:39.420Z,6.68
2023-02-02T01:35:06.363Z,6.68
2023-02-02T01:37:32.820Z,6.69
2023-02-02T01:39:59.648Z,6.71
2023-02-02T01:42:26.191Z,6.73
2023-02-02T01:44:52.711Z,6.74
2023-02-02T01:47:23.054Z,6.76
2023-02-02T01:49:49.785Z,6.76
2023-02-02T01:52:18.994Z,6.78
2023-02-02T01:54:50.831Z,6.81
2023-02-02T01:57:24.894Z,6.83
2023-02-02T01:59:53.025Z,6.84
2023-02-02T02:02:19.700Z,6.84
2023-02-02T02:04:47.407Z,6.87
2023-02-02T02:07:13.942Z,6.88
2023-02-02T02:09:40.374Z,6.90
2023-02-02T02:12:15.463Z,6.92
2023-02-02T02:15:03.598Z,6.92
2023-02-02T02:17:35.618Z,6.95
2023-02-02T02:20:54.891Z,6.97
2023-02-02T02:24:14.101Z,6.99
2023-02-02T02:26:49.525Z,7.00
2023-02-02T02:29:35.666Z,7.01
2023-02-02T02:32:10.931Z,7.03
2023-02-02T02:34:55.112Z,7.04
2023-02-02T02:37:36.417Z,7.08
2023-02-02T02:40:18.917Z,7.09
2023-02-02T02:42:55.574Z,7.10
2023-02-02T02:45:24.433Z,7.11
2023-02-02T02:47:52.312Z,7.12
2023-02-02T02:50:18.854Z,7.14
2023-02-02T02:52:47.659Z,7.16
2023-02-02T02:55:14.813Z,7.18
2023-02-02T02:58:15.476Z,7.22
2023-02-02T03:00:57.487Z,7.25
2023-02-02T03:03:43.118Z,7.29
2023-02-02T03:06:12.510Z,7.32
2023-02-02T03:08:55.145Z,7.36
2023-02-02T03:11:21.606Z,7.40
2023-02-02T03:13:48.885Z,7.45
2023-02-02T03:16:16.583Z,7.48
2023-02-02T03:18:43.212Z,7.54
2023-02-02T03:21:09.754Z,7.57
2023-02-02T03:23:36.103Z,7.59
2023-02-02T03:26:02.834Z,7.63
2023-02-02T03:28:29.862Z,7.67
2023-02-02T03:30:58.855Z,7.71
2023-02-02T03:33:25.317Z,7.73
2023-02-02T03:35:51.825Z,7.77
2023-02-02T03:38:18.575Z,7.81
2023-02-02T03:40:45.008Z,7.85
2023-02-02T03:43:11.565Z,7.88
2023-02-02T03:45:40.662Z,7.92
2023-02-02T03:48:07.166Z,7.95
2023-02-02T03:50:33.807Z,7.97
2023-02-02T03:53:00.286Z,8.01
2023-02-02T03:55:26.769Z,8.03
2023-02-02T03:57:53.311Z,8.07
2023-02-02T04:00:20.125Z,8.10
2023-02-02T04:02:46.633Z,8.12
2023-02-02T04:05:13.050Z,8.14
2023-02-02T04:07:39.994Z,8.17
2023-02-02T04:10:06.560Z,8.20
2023-02-02T04:12:32.924Z,8.22
2023-02-02T04:14:59.353Z,8.25
2023-02-02T04:17:25.717Z,8.28
2023-02-02T04:19:58.016Z,8.29
2023-02-02T04:22:26.079Z,8.32
2023-02-02T04:24:52.631Z,8.34
2023-02-02T04:27:19.022Z,8.35
2023-02-02T04:29:45.468Z,8.35
2023-02-02T04:32:11.957Z,8.35
2023-02-02T04:34:38.309Z,8.34
2023-02-02T04:37:04.674Z,8.32
2023-02-02T04:39:31.104Z,8.32
2023-02-02T04:41:57.501Z,8.31
2023-02-02T04:44:24.069Z,8.31
2023-02-02T04:46:50.483Z,8.30
2023-02-02T04:49:17.314Z,8.29
2023-02-02T04:51:44.068Z,8.29
2023-02-02T04:54:10.488Z,8.28
2023-02-02T04:56:36.919Z,8.27
2023-02-02T04:59:03.556Z,8.26
2023-02-02T05:01:30.750Z,8.25
2023-02-02T05:03:57.452Z,8.23
2023-02-02T05:06:23.894Z,8.21
2023-02-02T05:08:50.497Z,8.16
2023-02-02T05:11:20.052Z,8.11
2023-02-02T05:13:47.690Z,8.04
2023-02-02T05:16:14.484Z,7.99
2023-02-02T05:18:42.513Z,7.94
2023-02-02T05:21:09.469Z,7.86
2023-02-02T05:23:36.016Z,7.82
2023-02-02T05:26:02.438Z,7.78
2023-02-02T05:28:29.350Z,7.74
2023-02-02T05:30:55.809Z,7.70
2023-02-02T05:33:22.243Z,7.67
2023-02-02T05:35:49.477Z,7.65
2023-02-02T05:38:16.558Z,7.63
2023-02-02T05:40:42.943Z,7.62
2023-02-02T05:43:09.369Z,7.60
2023-02-02T05:45:35.819Z,7.58
2023-02-02T05:48:02.264Z,7.57
2023-02-02T05:50:28.643Z,7.55
2023-02-02T05:52:55.025Z,7.54
2023-02-02T05:55:21.361Z,7.53
2023-02-02T05:57:47.754Z,7.52
2023-02-02T06:00:14.462Z,7.51
2023-02-02T06:02:40.895Z,7.51
2023-02-02T06:05:07.706Z,7.51
2023-02-02T06:07:34.124Z,7.51
2023-02-02T06:10:00.475Z,7.52
2023-02-02T06:12:26.818Z,7.52
2023-02-02T06:14:53.159Z,7.53
2023-02-02T06:17:19.509Z,7.52
2023-02-02T06:19:45.873Z,7.52
2023-02-02T06:22:12.239Z,7.51
2023-02-02T06:24:38.651Z,7.51
2023-02-02T06:27:05.438Z,7.50
2023-02-02T06:29:31.822Z,7.48
2023-02-02T06:31:58.504Z,7.47
2023-02-02T06:34:24.922Z,7.44
2023-02-02T06:36:51.239Z,7.43
2023-02-02T06:39:17.619Z,7.42
2023-02-02T06:41:46.495Z,7.40
2023-02-02T06:44:15.261Z,7.40
2023-02-02T06:46:42.244Z,7.38
2023-02-02T06:49:09.052Z,7.38
2023-02-02T06:51:35.504Z,7.36
2023-02-02T06:54:03.784Z,7.36
2023-02-02T06:56:30.180Z,7.34
2023-02-02T06:58:56.645Z,7.34
2023-02-02T07:01:23.058Z,7.33
2023-02-02T07:03:51.075Z,7.34
2023-02-02T07:06:20.486Z,7.33
2023-02-02T07:08:56.017Z,7.34
2023-02-02T07:11:28.827Z,7.33
2023-02-02T07:14:01.642Z,7.35
2023-02-02T07:16:28.157Z,7.34
2023-02-02T07:18:54.619Z,7.35
2023-02-02T07:21:35.410Z,7.37
2023-02-02T07:24:02.827Z,7.36
2023-02-02T07:26:29.415Z,7.35
2023-02-02T07:28:55.889Z,7.36
2023-02-02T07:31:25.587Z,7.38
2023-02-02T07:33:52.975Z,7.38
2023-02-02T07:36:21.455Z,7.40
2023-02-02T07:38:48.686Z,7.41
2023-02-02T07:41:16.193Z,7.42
2023-02-02T07:43:42.924Z,7.43
2023-02-02T07:46:12.660Z,7.44
2023-02-02T07:48:39.638Z,7.47
2023-02-02T07:51:08.974Z,7.50
2023-02-02T07:53:35.718Z,7.51
2023-02-02T07:56:10.212Z,7.54
2023-02-02T07:58:37.243Z,7.57
2023-02-02T08:01:05.696Z,7.58
2023-02-02T08:03:32.859Z,7.61
2023-02-02T08:05:59.523Z,7.63
2023-02-02T08:08:26.100Z,7.66
2023-02-02T08:10:54.080Z,7.67
2023-02-02T08:13:20.894Z,7.69
2023-02-02T08:15:47.391Z,7.72
2023-02-02T08:18:13.853Z,7.72
2023-02-02T08:20:40.268Z,7.74
2023-02-02T08:23:13.392Z,7.75
2023-02-02T08:25:40.041Z,7.77
2023-02-02T08:28:06.376Z,7.78
2023-02-02T08:30:35.028Z,7.79
2023-02-02T08:33:01.473Z,7.79
2023-02-02T08:35:27.883Z,7.81
2023-02-02T08:37:54.292Z,7.82
2023-02-02T08:40:20.775Z,7.84
2023-02-02T08:42:51.013Z,7.85
2023-02-02T08:46:02.073Z,7.90
2023-02-02T08:48:11.605Z,7.95
2023-02-02T08:50:39.275Z,7.98
2023-02-02T08:53:06.060Z,8.00
2023-02-02T08:55:32.431Z,8.03
2023-02-02T08:57:58.771Z,8.05
2023-02-02T09:00:25.487Z,8.08
2023-02-02T09:02:51.814Z,8.12
2023-02-02T09:05:18.828Z,8.13
2023-02-02T09:07:45.791Z,8.16
2023-02-02T09:10:12.120Z,8.19
2023-02-02T09:12:38.448Z,8.21
2023-02-02T09:15:05.240Z,8.22
2023-02-02T09:17:31.583Z,8.25
2023-02-02T09:19:58.251Z,8.26
2023-02-02T09:22:24.643Z,8.28
2023-02-02T09:24:50.983Z,8.29
2023-02-02T09:27:17.310Z,8.28
2023-02-02T09:29:43.868Z,8.29
2023-02-02T09:32:10.420Z,8.30
2023-02-02T09:34:36.804Z,8.31
2023-02-02T09:37:03.342Z,8.33
2023-02-02T09:39:29.729Z,8.35
2023-02-02T09:42:20.331Z,8.40
2023-02-02T09:44:52.586Z,8.42
2023-02-02T09:47:29.433Z,8.47
2023-02-02T09:50:04.953Z,8.49
2023-02-02T09:52:41.887Z,8.54
2023-02-02T09:55:23.361Z,8.56
2023-02-02T09:57:55.463Z,8.60
2023-02-02T10:00:34.772Z,8.62
2023-02-02T10:03:09.263Z,8.65
2023-02-02T10:05:47.494Z,8.67
2023-02-02T10:08:33.868Z,8.70
2023-02-02T10:11:07.771Z,8.73
2023-02-02T10:13:37.978Z,8.74
2023-02-02T10:16:16.957Z,8.77
2023-02-02T10:18:56.910Z,8.79
2023-02-02T10:21:41.667Z,8.82
2023-02-02T10:24:21.088Z,8.85
2023-02-02T10:26:54.535Z,8.88
2023-02-02T10:29:23.949Z,8.90
2023-02-02T10:32:24.501Z,8.91
2023-02-02T10:35:10.918Z,8.93
2023-02-02T10:37:54.327Z,8.95
2023-02-02T10:41:02.018Z,8.97
2023-02-02T10:43:50.162Z,8.99
2023-02-02T10:46:22.874Z,9.00
2023-02-02T10:48:52.633Z,9.01
2023-02-02T10:51:28.875Z,9.04
2023-02-02T10:53:58.075Z,9.06
2023-02-02T10:56:39.836Z,9.09
2023-02-02T10:59:11.558Z,9.10
2023-02-02T11:01:38.014Z,9.12
2023-02-02T11:04:22.946Z,9.13
2023-02-02T11:06:49.448Z,9.16
2023-02-02T11:09:28.584Z,9.22
2023-02-02T11:12:01.270Z,9.25
2023-02-02T11:14:45.934Z,9.29
2023-02-02T11:17:26.091Z,9.33
2023-02-02T11:19:55.582Z,9.37
2023-02-02T11:22:38.379Z,9.41
2023-02-02T11:25:06.758Z,9.44
2023-02-02T11:27:39.871Z,9.47
2023-02-02T11:30:28.113Z,9.50
2023-02-02T11:32:55.710Z,9.52
2023-02-02T11:35:24.408Z,9.55
2023-02-02T11:38:03.025Z,9.55
2023-02-02T11:40:31.292Z,9.54
2023-02-02T11:43:01.140Z,9.54
2023-02-02T11:45:35.498Z,9.55
2023-02-02T11:48:16.547Z,9.55
2023-02-02T11:50:49.801Z,9.54
2023-02-02T11:53:25.041Z,9.52
2023-02-02T11:55:53.145Z,9.52
2023-02-02T11:58:29.788Z,9.51
2023-02-02T12:01:01.783Z,9.52
2023-02-02T12:03:36.894Z,9.51
2023-02-02T12:06:20.367Z,9.53
2023-02-02T12:08:47.066Z,9.54
2023-02-02T12:12:02.829Z,9.57
2023-02-02T12:14:39.753Z,9.59
2023-02-02T12:17:18.342Z,9.60
2023-02-02T12:20:13.729Z,9.61
2023-02-02T12:23:03.331Z,9.63
2023-02-02T12:25:38.550Z,9.62
2023-02-02T12:28:48.418Z,9.64
2023-02-02T12:31:30.445Z,9.63
2023-02-02T12:34:20.964Z,9.62
2023-02-02T12:37:14.505Z,9.62
2023-02-02T12:39:55.197Z,9.61
2023-02-02T12:42:49.021Z,9.59
2023-02-02T12:45:42.015Z,9.60
2023-02-02T12:48:38.593Z,9.59
2023-02-02T12:51:23.231Z,9.61
2023-02-02T12:54:33.453Z,9.61
2023-02-02T12:57:23.275Z,9.62
2023-02-02T13:00:03.067Z,9.62
2023-02-02T13:02:40.991Z,9.62
2023-02-02T13:05:10.088Z,9.62
2023-02-02T13:07:39.717Z,9.59
2023-02-02T13:10:13.590Z,9.60
2023-02-02T13:12:45.043Z,9.61
2023-02-02T13:15:18.670Z,9.59
2023-02-02T13:17:51.052Z,9.59
2023-02-02T13:20:27.845Z,9.58
2023-02-02T13:22:59.019Z,9.59
2023-02-02T13:25:30.906Z,9.58
2023-02-02T13:28:01.385Z,9.57
2023-02-02T13:30:32.905Z,9.58
2023-02-02T13:33:17.308Z,9.56
2023-02-02T13:35:54.077Z,9.56
2023-02-02T13:38:26.088Z,9.55
2023-02-02T13:41:03.413Z,9.54
2023-02-02T13:43:47.673Z,9.52
2023-02-02T13:46:29.297Z,9.51
2023-02-02T13:49:14.015Z,9.50
2023-02-02T13:51:46.356Z,9.47
2023-02-02T13:54:46.387Z,9.43
2023-02-02T13:57:48.597Z,9.40
2023-02-02T14:00:28.723Z,9.37
2023-02-02T14:03:03.745Z,9.35
2023-02-02T14:05:40.189Z,9.34
2023-02-02T14:08:21.862Z,9.31
2023-02-02T14:10:54.407Z,9.31
2023-02-02T14:13:55.648Z,9.30
2023-02-02T14:16:43.865Z,9.28
2023-02-02T14:19:16.278Z,9.28
2023-02-02T14:21:42.534Z,9.27
2023-02-02T14:24:27.314Z,9.27
2023-02-02T14:26:54.874Z,9.27
2023-02-02T14:29:33.413Z,9.27
2023-02-02T14:32:24.633Z,9.27
2023-02-02T14:34:53.624Z,9.24
2023-02-02T14:37:52.571Z,9.26
2023-02-02T14:40:48.490Z,9.23
2023-02-02T14:43:44.185Z,9.21
2023-02-02T14:46:13.601Z,9.18
2023-02-02T14:48:42.692Z,9.17
2023-02-02T14:51:25.064Z,9.15
2023-02-02T14:53:54.871Z,9.15
2023-02-02T14:56:38.681Z,9.15
2023-02-02T14:59:07.460Z,9.15
2023-02-02T15:01:36.698Z,9.15
2023-02-02T15:04:21.383Z,9.16
2023-02-02T15:06:52.409Z,9.14
2023-02-02T15:09:33.414Z,9.14
2023-02-02T15:12:02.855Z,9.13
2023-02-02T15:14:35.300Z,9.13
2023-02-02T15:17:12.427Z,9.15
2023-02-02T15:19:42.424Z,9.16
2023-02-02T15:22:35.204Z,9.17
2023-02-02T15:25:12.433Z,9.17
2023-02-02T15:27:51.493Z,9.17
2023-02-02T15:30:24.083Z,9.18
2023-02-02T15:32:52.470Z,9.19
2023-02-02T15:35:23.615Z,9.20
2023-02-02T15:37:56.785Z,9.20
2023-02-02T15:40:25.750Z,9.20
2023-02-02T15:43:09.089Z,9.19
2023-02-02T15:45:44.340Z,9.19
2023-02-02T15:48:21.106Z,9.18
2023-02-02T15:50:51.303Z,9.17
2023-02-02T15:53:23.884Z,9.17
2023-02-02T15:55:50.371Z,9.15
2023-02-02T15:58:26.071Z,9.16
2023-02-02T16:01:13.049Z,9.14
2023-02-02T16:04:08.203Z,9.13
2023-02-02T16:06:34.901Z,9.12
2023-02-02T16:09:05.684Z,9.10
2023-02-02T16:11:32.085Z,9.08
2023-02-02T16:14:02.638Z,9.07
2023-02-02T16:16:39.925Z,9.06
2023-02-02T16:19:09.378Z,9.04
2023-02-02T16:21:40.735Z,9.02
2023-02-02T16:24:15.000Z,9.03
2023-02-02T16:26:41.792Z,9.01
2023-02-02T16:29:17.194Z,9.00
2023-02-02T16:31:46.424Z,9.00
2023-02-02T16:34:18.601Z,8.99
2023-02-02T16:37:03.632Z,9.00
2023-02-02T16:39:30.012Z,8.99
2023-02-02T16:42:08.340Z,8.99
2023-02-02T16:44:40.738Z,8.99
2023-02-02T16:47:08.648Z,8.99
2023-02-02T16:49:36.029Z,8.97
2023-02-02T16:52:13.983Z,8.97
2023-02-02T16:54:51.803Z,8.96
2023-02-02T16:57:22.860Z,8.95
2023-02-02T16:59:55.538Z,8.95
2023-02-02T17:02:31.151Z,8.95
2023-02-02T17:05:10.648Z,8.95
2023-02-02T17:07:38.658Z,8.94
2023-02-02T17:10:31.061Z,8.95
2023-02-02T17:13:01.822Z,8.96
2023-02-02T17:15:32.084Z,8.95
2023-02-02T17:18:00.770Z,8.95
2023-02-02T17:20:27.967Z,8.96
2023-02-02T17:23:07.032Z,8.97
2023-02-02T17:25:41.993Z,8.98
2023-02-02T17:28:14.615Z,8.99
2023-02-02T17:30:42.924Z,8.99
2023-02-02T17:33:14.630Z,9.02
2023-02-02T17:35:53.817Z,9.04
2023-02-02T17:38:23.219Z,9.07
2023-02-02T17:40:50.582Z,9.09
2023-02-02T17:43:16.977Z,9.11
2023-02-02T17:45:43.612Z,9.14
2023-02-02T17:48:12.421Z,9.18
2023-02-02T17:50:39.853Z,9.20
2023-02-02T17:53:06.715Z,9.22
2023-02-02T17:55:37.964Z,9.27
2023-02-02T17:58:04.375Z,9.28
2023-02-02T18:00:31.704Z,9.31
2023-02-02T18:03:21.382Z,9.35
2023-02-02T18:05:48.212Z,9.37
2023-02-02T18:08:15.130Z,9.40
2023-02-02T18:10:42.965Z,9.42
2023-02-02T18:13:19.260Z,9.47
2023-02-02T18:15:46.153Z,9.50
2023-02-02T18:18:12.916Z,9.54
2023-02-02T18:20:43.162Z,9.56
2023-02-02T18:23:09.651Z,9.59
2023-02-02T18:25:37.667Z,9.63
2023-02-02T18:28:04.174Z,9.65
2023-02-02T18:30:30.637Z,9.69
2023-02-02T18:32:57.042Z,9.72
2023-02-02T18:35:23.962Z,9.76
2023-02-02T18:37:51.348Z,9.79
2023-02-02T18:40:18.555Z,9.80
2023-02-02T18:42:45.024Z,9.84
2023-02-02T18:45:11.724Z,9.86
2023-02-02T18:47:41.038Z,9.88
2023-02-02T18:50:08.240Z,9.90
2023-02-02T18:52:34.959Z,9.92
2023-02-02T18:55:01.422Z,9.93
2023-02-02T18:57:29.689Z,9.94
2023-02-02T18:59:58.475Z,9.96
2023-02-02T19:02:25.822Z,9.98
2023-02-02T19:05:11.014Z,9.99
2023-02-02T19:07:55.453Z,10.01
2023-02-02T19:10:25.064Z,10.01
2023-02-02T19:13:03.202Z,10.02
2023-02-02T19:15:37.712Z,10.03
2023-02-02T19:18:13.228Z,10.05
2023-02-02T19:20:39.693Z,10.04
2023-02-02T19:23:13.659Z,10.06
2023-02-02T19:25:41.874Z,10.06
2023-02-02T19:28:29.923Z,10.08
2023-02-02T19:30:58.968Z,10.09
2023-02-02T19:33:39.237Z,10.11
2023-02-02T19:36:13.482Z,10.11
2023-02-02T19:38:39.839Z,10.13
2023-02-02T19:41:21.491Z,10.16
2023-02-02T19:44:01.276Z,10.15
2023-02-02T19:46:30.931Z,10.18
2023-02-02T19:49:27.056Z,10.19
2023-02-02T19:51:55.768Z,10.20
2023-02-02T19:54:27.941Z,10.22
2023-02-02T19:56:58.008Z,10.24
2023-02-02T19:59:26.408Z,10.24
2023-02-02T20:01:52.841Z,10.25
2023-02-02T20:04:20.125Z,10.27
2023-02-02T20:06:58.649Z,10.28
2023-02-02T20:09:33.782Z,10.30
2023-02-02T20:12:00.432Z,10.31
2023-02-02T20:14:33.120Z,10.32
2023-02-02T20:17:07.322Z,10.33
2023-02-02T20:19:39.990Z,10.34
2023-02-02T20:22:22.883Z,10.35
2023-02-02T20:24:49.961Z,10.36
2023-02-02T20:27:18.738Z,10.36
2023-02-02T20:29:50.904Z,10.38
2023-02-02T20:32:26.621Z,10.38
2023-02-02T20:34:57.100Z,10.39
2023-02-02T20:37:33.348Z,10.39
2023-02-02T20:40:03.049Z,10.40
2023-02-02T20:42:30.124Z,10.41
2023-02-02T20:44:58.081Z,10.42
2023-02-02T20:47:24.492Z,10.41
2023-02-02T20:49:50.982Z,10.42
2023-02-02T20:52:23.736Z,10.43
2023-02-02T20:54:51.997Z,10.44
2023-02-02T20:57:19.151Z,10.44
2023-02-02T20:59:45.605Z,10.45
2023-02-02T21:02:19.424Z,10.46
2023-02-02T21:04:47.644Z,10.46
2023-02-02T21:07:17.112Z,10.46
2023-02-02T21:09:48.297Z,10.47
2023-02-02T21:12:15.135Z,10.47
2023-02-02T21:14:41.805Z,10.48
2023-02-02T21:17:15.319Z,10.47
2023-02-02T21:19:42.952Z,10.49
2023-02-02T21:22:09.511Z,10.50
2023-02-02T21:24:35.915Z,10.48
2023-02-02T21:27:04.751Z,10.48
2023-02-02T21:29:32.481Z,10.51
2023-02-02T21:32:02.126Z,10.50
2023-02-02T21:34:28.913Z,10.51
2023-02-02T21:36:59.381Z,10.51
2023-02-02T21:39:35.144Z,10.50
2023-02-02T21:42:07.672Z,10.52
2023-02-02T21:44:39.952Z,10.51
2023-02-02T21:47:24.010Z,10.52
2023-02-02T21:49:50.737Z,10.51
2023-02-02T21:52:19.076Z,10.51
2023-02-02T21:54:46.602Z,10.52
2023-02-02T21:57:26.093Z,10.53
2023-02-02T21:59:56.435Z,10.55
2023-02-02T22:02:35.048Z,10.55
2023-02-02T22:05:10.728Z,10.56
2023-02-02T22:07:37.115Z,10.58
2023-02-02T22:10:22.752Z,10.57
2023-02-02T22:12:49.110Z,10.58
2023-02-02T22:15:20.591Z,10.61
2023-02-02T22:17:47.310Z,10.61
2023-02-02T22:20:23.382Z,10.63
2023-02-02T22:22:51.595Z,10.64
2023-02-02T22:25:17.910Z,10.64
2023-02-02T22:27:53.705Z,10.66
2023-02-02T22:30:37.012Z,10.69
2023-02-02T22:33:05.674Z,10.70
2023-02-02T22:35:33.345Z,10.69
2023-02-02T22:37:59.765Z,10.69
2023-02-02T22:40:27.185Z,10.70
2023-02-02T22:42:56.596Z,10.69
2023-02-02T22:45:23.696Z,10.70
2023-02-02T22:47:51.030Z,10.71
2023-02-02T22:50:19.707Z,10.72
2023-02-02T22:52:46.071Z,10.72
2023-02-02T22:55:13.289Z,10.73
2023-02-02T22:57:39.787Z,10.75
2023-02-02T23:00:13.848Z,10.76
2023-02-02T23:02:41.541Z,10.76
2023-02-02T23:05:09.879Z,10.78
2023-02-02T23:07:36.473Z,10.79
2023-02-02T23:10:02.971Z,10.80
2023-02-02T23:12:29.414Z,10.79
2023-02-02T23:14:55.840Z,10.81
2023-02-02T23:17:22.282Z,10.82
2023-02-02T23:19:48.679Z,10.82
2023-02-02T23:22:15.238Z,10.83
2023-02-02T23:24:41.986Z,10.83
2023-02-02T23:27:08.373Z,10.83
2023-02-02T23:29:34.735Z,10.84
2023-02-02T23:32:01.799Z,10.85
2023-02-02T23:34:28.224Z,10.85
2023-02-02T23:36:54.652Z,10.85
2023-02-02T23:39:21.032Z,10.85
2023-02-02T23:41:47.507Z,10.87
2023-02-02T23:44:13.932Z,10.86
2023-02-02T23:46:41.465Z,10.86
2023-02-02T23:49:08.029Z,10.85
2023-02-02T23:51:35.185Z,10.88
2023-02-02T23:54:01.828Z,10.87
2023-02-02T23:56:28.787Z,10.89
2023-02-02T23:58:55.127Z,10.89
